createdAt,value
2022-12-01T00:01:31.693Z,16.13
2022-12-01T00:03:59.604Z,14.32
2022-12-01T00:06:27.547Z,15.73
2022-12-01T00:09:27.692Z,14.35
2022-12-01T00:11:55.563Z,14.20
2022-12-01T00:14:24.219Z,14.85
2022-12-01T00:16:53.499Z,15.30
2022-12-01T00:19:25.604Z,13.75
2022-12-01T00:21:53.539Z,14.57
2022-12-01T00:24:23.369Z,13.10
2022-12-01T00:26:51.435Z,14.00
2022-12-01T00:29:19.429Z,13.63
2022-12-01T00:31:47.391Z,15.40
2022-12-01T00:34:23.402Z,14.35
2022-12-01T00:36:51.583Z,16.25
2022-12-01T00:39:19.473Z,16.40
2022-12-01T00:41:47.470Z,15.27
2022-12-01T00:44:15.378Z,17.88
2022-12-01T00:46:43.274Z,15.65
2022-12-01T00:49:13.505Z,14.93
2022-12-01T00:51:42.841Z,16.00
2022-12-01T00:54:10.727Z,15.70
2022-12-01T00:56:38.631Z,15.00
2022-12-01T00:59:06.594Z,16.98
2022-12-01T01:01:35.122Z,15.65
2022-12-01T01:04:03.096Z,15.10
2022-12-01T01:06:31.103Z,15.15
2022-12-01T01:09:00.456Z,14.55
2022-12-01T01:11:28.467Z,15.82
2022-12-01T01:13:56.537Z,14.65
2022-12-01T01:16:24.535Z,14.10
2022-12-01T01:18:52.670Z,16.60
2022-12-01T01:21:22.922Z,16.92
2022-12-01T01:23:51.679Z,16.58
2022-12-01T01:26:24.445Z,14.85
2022-12-01T01:28:53.046Z,14.95
2022-12-01T01:31:23.395Z,15.98
2022-12-01T01:33:51.913Z,16.50
2022-12-01T01:36:20.437Z,16.52
2022-12-01T01:38:51.413Z,15.75
2022-12-01T01:41:21.399Z,16.77
2022-12-01T01:43:51.325Z,14.35
2022-12-01T01:46:21.345Z,16.52
2022-12-01T01:48:51.998Z,17.13
2022-12-01T01:51:25.223Z,15.45
2022-12-01T01:53:57.609Z,17.23
2022-12-01T01:56:26.926Z,17.55
2022-12-01T01:58:55.424Z,15.82
2022-12-01T02:01:23.361Z,15.15
2022-12-01T02:03:53.414Z,16.77
2022-12-01T02:06:23.819Z,15.77
2022-12-01T02:08:51.944Z,16.25
2022-12-01T02:11:49.291Z,17.17
2022-12-01T02:14:43.470Z,15.50
2022-12-01T02:17:23.585Z,14.77
2022-12-01T02:20:35.383Z,14.68
2022-12-01T02:23:26.492Z,16.48
2022-12-01T02:26:14.037Z,14.15
2022-12-01T02:29:03.827Z,15.40
2022-12-01T02:31:42.028Z,13.48
2022-12-01T02:34:15.924Z,13.80
2022-12-01T02:36:51.238Z,15.05
2022-12-01T02:39:25.172Z,15.13
2022-12-01T02:42:02.459Z,13.85
2022-12-01T02:44:35.293Z,15.05
2022-12-01T02:47:11.406Z,14.93
2022-12-01T02:49:43.952Z,14.63
2022-12-01T02:52:12.586Z,14.57
2022-12-01T02:54:40.889Z,14.63
2022-12-01T02:57:10.245Z,14.32
2022-12-01T02:59:38.519Z,15.98
2022-12-01T03:02:16.571Z,16.60
2022-12-01T03:04:58.619Z,16.40
2022-12-01T03:07:43.653Z,14.50
2022-12-01T03:13:00.381Z,14.67
2022-12-01T03:15:35.932Z,15.55
2022-12-01T03:18:15.336Z,16.02
2022-12-01T03:20:49.758Z,15.52
2022-12-01T03:23:23.805Z,15.85
2022-12-01T03:25:55.607Z,16.23
2022-12-01T03:28:28.768Z,15.13
2022-12-01T03:31:00.755Z,15.70
2022-12-01T03:33:34.996Z,15.68
2022-12-01T03:36:07.438Z,15.38
2022-12-01T03:38:38.345Z,16.10
2022-12-01T03:41:10.487Z,16.88
2022-12-01T03:43:42.876Z,15.50
2022-12-01T03:46:15.292Z,16.05
2022-12-01T03:48:45.087Z,17.58
2022-12-01T03:51:16.993Z,18.13
2022-12-01T03:53:54.018Z,15.55
2022-12-01T03:56:25.767Z,16.55
2022-12-01T03:58:57.910Z,18.13
2022-12-01T04:01:26.501Z,15.73
2022-12-01T04:03:55.884Z,15.63
2022-12-01T04:06:23.835Z,16.08
2022-12-01T04:08:51.737Z,17.00
2022-12-01T04:11:36.986Z,14.40
2022-12-01T04:14:04.960Z,17.25
2022-12-01T04:16:33.091Z,18.63
2022-12-01T04:19:02.908Z,19.23
2022-12-01T04:21:30.921Z,18.70
2022-12-01T04:24:01.740Z,17.65
2022-12-01T04:26:30.687Z,19.10
2022-12-01T04:28:59.072Z,17.13
2022-12-01T04:31:27.387Z,17.80
2022-12-01T04:33:58.439Z,18.77
2022-12-01T04:36:30.592Z,20.30
2022-12-01T04:38:59.258Z,18.35
2022-12-01T04:41:27.290Z,16.85
2022-12-01T04:43:55.980Z,19.02
2022-12-01T04:46:24.601Z,17.15
2022-12-01T04:48:53.074Z,17.13
2022-12-01T04:51:22.284Z,17.83
2022-12-01T04:53:51.872Z,16.27
2022-12-01T04:56:20.111Z,15.38
2022-12-01T04:58:48.239Z,16.65
2022-12-01T05:01:17.886Z,17.48
2022-12-01T05:03:49.490Z,16.13
2022-12-01T05:06:19.327Z,18.42
2022-12-01T05:08:47.756Z,16.95
2022-12-01T05:11:18.747Z,18.38
2022-12-01T05:13:48.756Z,16.83
2022-12-01T05:16:19.029Z,18.75
2022-12-01T05:18:49.941Z,17.15
2022-12-01T05:21:17.899Z,18.02
2022-12-01T05:23:48.703Z,17.52
2022-12-01T05:26:18.165Z,19.73
2022-12-01T05:28:46.167Z,18.58
2022-12-01T05:31:14.195Z,18.63
2022-12-01T05:33:42.164Z,17.38
2022-12-01T05:36:10.708Z,19.02
2022-12-01T05:38:38.693Z,18.17
2022-12-01T05:41:06.963Z,16.98
2022-12-01T05:43:36.299Z,17.02
2022-12-01T05:46:04.580Z,17.77
2022-12-01T05:48:32.527Z,17.27
2022-12-01T05:51:00.756Z,16.95
2022-12-01T05:53:28.811Z,17.90
2022-12-01T05:55:56.769Z,16.88
2022-12-01T05:58:24.920Z,17.83
2022-12-01T06:00:54.356Z,18.23
2022-12-01T06:03:23.304Z,16.50
2022-12-01T06:05:51.276Z,18.67
2022-12-01T06:08:19.316Z,19.13
2022-12-01T06:10:48.235Z,18.42
2022-12-01T06:13:16.753Z,19.92
2022-12-01T06:15:44.807Z,18.67
2022-12-01T06:18:14.297Z,18.65
2022-12-01T06:20:42.286Z,20.30
2022-12-01T06:23:10.254Z,19.98
2022-12-01T06:25:38.309Z,21.65
2022-12-01T06:28:06.271Z,19.00
2022-12-01T06:30:34.268Z,18.02
2022-12-01T06:33:02.412Z,19.90
2022-12-01T06:35:31.791Z,18.08
2022-12-01T06:37:59.798Z,19.48
2022-12-01T06:40:28.264Z,17.02
2022-12-01T06:42:56.206Z,19.65
2022-12-01T06:45:24.212Z,16.75
2022-12-01T06:47:54.806Z,17.90
2022-12-01T06:50:22.884Z,19.85
2022-12-01T06:52:52.742Z,19.30
2022-12-01T06:55:20.874Z,17.65
2022-12-01T06:57:49.351Z,20.38
2022-12-01T07:00:18.390Z,21.75
2022-12-01T07:02:47.127Z,21.73
2022-12-01T07:05:15.084Z,21.02
2022-12-01T07:07:43.079Z,20.05
2022-12-01T07:10:14.199Z,21.17
2022-12-01T07:12:42.288Z,20.65
2022-12-01T07:15:11.017Z,23.55
2022-12-01T07:17:38.990Z,21.10
2022-12-01T07:20:10.040Z,22.85
2022-12-01T07:22:38.687Z,21.55
2022-12-01T07:25:07.830Z,20.92
2022-12-01T07:27:37.438Z,23.05
2022-12-01T07:30:06.389Z,23.30
2022-12-01T07:32:34.541Z,21.05
2022-12-01T07:35:02.626Z,22.75
2022-12-01T07:37:30.531Z,24.48
2022-12-01T07:39:58.494Z,21.52
2022-12-01T07:42:26.464Z,21.75
2022-12-01T07:44:55.747Z,21.67
2022-12-01T07:47:23.779Z,23.55
2022-12-01T07:49:52.005Z,20.92
2022-12-01T07:52:20.554Z,22.55
2022-12-01T07:54:48.571Z,24.88
2022-12-01T07:57:18.084Z,23.83
2022-12-01T07:59:46.180Z,25.40
2022-12-01T08:02:15.794Z,25.80
2022-12-01T08:04:44.065Z,23.98
2022-12-01T08:07:12.115Z,25.30
2022-12-01T08:09:40.166Z,23.42
2022-12-01T08:12:09.330Z,23.98
2022-12-01T08:14:39.740Z,24.10
2022-12-01T08:17:07.865Z,21.08
2022-12-01T08:19:37.275Z,22.25
2022-12-01T08:22:05.317Z,22.60
2022-12-01T08:24:33.309Z,22.95
2022-12-01T08:27:01.276Z,22.65
2022-12-01T08:29:29.227Z,23.58
2022-12-01T08:31:58.518Z,23.52
2022-12-01T08:34:26.617Z,29.88
2022-12-01T08:36:56.017Z,44.42
2022-12-01T08:39:24.126Z,26.70
2022-12-01T08:41:52.129Z,24.30
2022-12-01T08:44:20.223Z,24.52
2022-12-01T08:46:48.405Z,24.80
2022-12-01T08:49:16.449Z,24.05
2022-12-01T08:51:44.412Z,23.45
2022-12-01T08:54:13.758Z,22.92
2022-12-01T08:56:43.273Z,21.73
2022-12-01T08:59:11.531Z,21.83
2022-12-01T09:01:51.787Z,22.30
2022-12-01T09:04:21.165Z,21.40
2022-12-01T09:06:52.347Z,23.13
2022-12-01T09:09:23.795Z,22.50
2022-12-01T09:11:53.257Z,22.10
2022-12-01T09:14:22.730Z,21.58
2022-12-01T09:16:51.698Z,24.63
2022-12-01T09:19:24.562Z,24.05
2022-12-01T09:21:53.686Z,22.70
2022-12-01T09:24:23.313Z,26.13
2022-12-01T09:26:51.599Z,22.92
2022-12-01T09:29:19.574Z,23.38
2022-12-01T09:31:47.568Z,23.45
2022-12-01T09:34:17.313Z,22.30
2022-12-01T09:36:46.878Z,23.05
2022-12-01T09:39:16.847Z,20.98
2022-12-01T09:41:51.005Z,23.17
2022-12-01T09:44:36.913Z,22.85
2022-12-01T09:47:11.642Z,20.55
2022-12-01T09:49:45.970Z,22.17
2022-12-01T09:52:16.799Z,20.83
2022-12-01T09:54:45.128Z,18.77
2022-12-01T09:57:19.208Z,19.02
2022-12-01T09:59:47.908Z,20.45
2022-12-01T10:02:27.568Z,20.05
2022-12-01T10:05:00.224Z,19.35
2022-12-01T10:07:31.831Z,19.67
2022-12-01T10:10:03.741Z,19.95
2022-12-01T10:12:36.052Z,19.45
2022-12-01T10:15:26.220Z,18.73
2022-12-01T10:18:04.219Z,18.23
2022-12-01T10:20:37.706Z,19.13
2022-12-01T10:23:19.440Z,19.38
2022-12-01T10:25:56.619Z,27.80
2022-12-01T10:28:51.523Z,24.65
2022-12-01T10:31:22.163Z,20.73
2022-12-01T10:34:00.650Z,19.67
2022-12-01T10:36:31.293Z,21.60
2022-12-01T10:39:03.078Z,19.90
2022-12-01T10:41:38.784Z,18.58
2022-12-01T10:44:11.574Z,17.10
2022-12-01T10:46:45.294Z,18.08
2022-12-01T10:49:17.980Z,17.42
2022-12-01T10:51:55.371Z,17.52
2022-12-01T10:54:25.427Z,16.08
2022-12-01T10:56:58.048Z,17.08
2022-12-01T10:59:35.282Z,16.98
2022-12-01T11:02:04.504Z,17.88
2022-12-01T11:04:45.063Z,19.17
2022-12-01T11:07:18.483Z,19.80
2022-12-01T11:09:49.385Z,17.27
2022-12-01T11:12:20.487Z,18.70
2022-12-01T11:14:51.951Z,21.02
2022-12-01T11:17:36.678Z,17.17
2022-12-01T11:20:27.814Z,16.73
2022-12-01T11:23:28.181Z,15.55
2022-12-01T11:26:07.588Z,19.92
2022-12-01T11:28:36.229Z,17.65
2022-12-01T11:31:07.782Z,18.70
2022-12-01T11:33:45.437Z,17.70
2022-12-01T11:36:27.931Z,18.60
2022-12-01T11:38:58.997Z,18.10
2022-12-01T11:41:32.682Z,16.48
2022-12-01T11:44:06.318Z,16.20
2022-12-01T11:46:50.184Z,17.95
2022-12-01T11:49:25.766Z,17.67
2022-12-01T11:51:53.712Z,14.68
2022-12-01T11:54:24.841Z,17.05
2022-12-01T11:57:25.491Z,17.85
2022-12-01T11:59:42.232Z,19.70
2022-12-01T12:02:24.944Z,16.77
2022-12-01T12:05:10.758Z,17.13
2022-12-01T12:07:50.963Z,17.30
2022-12-01T12:10:34.493Z,16.80
2022-12-01T12:13:12.600Z,16.85
2022-12-01T12:15:51.549Z,18.13
2022-12-01T12:18:34.899Z,15.98
2022-12-01T12:21:13.241Z,14.45
2022-12-01T12:24:08.684Z,14.52
2022-12-01T12:26:44.812Z,14.40
2022-12-01T12:29:33.515Z,13.63
2022-12-01T12:32:20.750Z,13.05
2022-12-01T12:34:55.758Z,14.27
2022-12-01T12:37:33.332Z,13.20
2022-12-01T12:40:25.888Z,14.48
2022-12-01T12:43:07.366Z,15.10
2022-12-01T12:45:47.943Z,14.52
2022-12-01T12:48:25.541Z,15.20
2022-12-01T12:51:02.141Z,15.10
2022-12-01T12:53:39.400Z,14.82
2022-12-01T12:56:13.234Z,15.07
2022-12-01T12:58:51.066Z,15.48
2022-12-01T13:01:23.793Z,13.68
2022-12-01T13:03:58.466Z,14.60
2022-12-01T13:09:09.518Z,13.10
2022-12-01T13:11:45.271Z,14.63
2022-12-01T13:14:24.812Z,14.77
2022-12-01T13:16:57.536Z,13.88
2022-12-01T13:19:30.657Z,17.20
2022-12-01T13:22:01.838Z,13.68
2022-12-01T13:24:31.578Z,14.45
2022-12-01T13:27:05.221Z,14.93
2022-12-01T13:29:41.028Z,17.10
2022-12-01T13:32:28.440Z,13.98
2022-12-01T13:34:56.635Z,15.10
2022-12-01T13:37:30.842Z,15.75
2022-12-01T13:40:10.428Z,13.88
2022-12-01T13:42:39.848Z,17.00
2022-12-01T13:45:18.692Z,15.52
2022-12-01T13:47:54.375Z,12.95
2022-12-01T13:50:57.444Z,14.07
2022-12-01T13:53:35.894Z,14.40
2022-12-01T13:56:39.379Z,14.45
2022-12-01T13:59:43.376Z,13.82
2022-12-01T14:02:21.368Z,15.77
2022-12-01T14:04:52.281Z,15.52
2022-12-01T14:07:44.399Z,15.32
2022-12-01T14:10:29.710Z,14.68
2022-12-01T14:13:02.852Z,13.93
2022-12-01T14:15:40.218Z,14.80
2022-12-01T14:18:23.542Z,13.45
2022-12-01T14:20:51.809Z,14.50
2022-12-01T14:23:28.883Z,13.90
2022-12-01T14:26:10.817Z,14.75
2022-12-01T14:29:11.726Z,13.93
2022-12-01T14:32:25.513Z,13.20
2022-12-01T14:35:14.841Z,13.98
2022-12-01T14:38:08.273Z,13.38
2022-12-01T14:40:36.346Z,13.43
2022-12-01T14:43:23.654Z,13.10
2022-12-01T14:46:05.721Z,13.13
2022-12-01T14:48:40.198Z,15.38
2022-12-01T14:51:19.198Z,13.98
2022-12-01T14:53:53.137Z,13.15
2022-12-01T14:56:24.123Z,13.88
2022-12-01T14:58:57.146Z,15.05
2022-12-01T15:01:31.727Z,13.00
2022-12-01T15:06:31.103Z,13.45
2022-12-01T15:09:32.923Z,13.30
2022-12-01T15:11:58.694Z,14.77
2022-12-01T15:14:38.938Z,13.48
2022-12-01T15:17:08.959Z,13.77
2022-12-01T15:19:39.243Z,17.17
2022-12-01T15:22:14.041Z,15.30
2022-12-01T15:24:45.817Z,15.50
2022-12-01T15:27:26.699Z,13.82
2022-12-01T15:29:58.450Z,13.40
2022-12-01T15:32:27.990Z,14.23
2022-12-01T15:34:57.283Z,11.52
2022-12-01T15:37:32.900Z,12.95
2022-12-01T15:43:07.377Z,14.48
2022-12-01T15:45:49.341Z,13.27
2022-12-01T15:48:19.195Z,16.30
2022-12-01T15:51:02.111Z,15.65
2022-12-01T15:53:33.908Z,15.25
2022-12-01T15:56:05.380Z,15.00
2022-12-01T15:58:45.125Z,17.58
2022-12-01T16:01:17.180Z,14.77
2022-12-01T16:03:54.139Z,15.45
2022-12-01T16:06:25.901Z,14.75
2022-12-01T16:09:01.809Z,15.30
2022-12-01T16:11:31.599Z,14.85
2022-12-01T16:14:03.648Z,14.75
2022-12-01T16:16:46.931Z,25.75
2022-12-01T16:19:32.029Z,15.40
2022-12-01T16:24:35.646Z,13.77
2022-12-01T16:27:06.852Z,13.75
2022-12-01T16:29:50.769Z,16.75
2022-12-01T16:32:24.181Z,14.13
2022-12-01T16:34:54.338Z,15.10
2022-12-01T16:37:23.620Z,15.30
2022-12-01T16:42:36.863Z,15.60
2022-12-01T16:45:07.545Z,12.50
2022-12-01T16:47:36.916Z,14.27
2022-12-01T16:50:05.560Z,14.65
2022-12-01T16:52:44.041Z,15.70
2022-12-01T16:55:26.444Z,15.60
2022-12-01T16:57:55.301Z,17.45
2022-12-01T17:00:28.662Z,22.35
2022-12-01T17:03:02.427Z,14.57
2022-12-01T17:05:30.565Z,16.00
2022-12-01T17:08:00.505Z,17.63
2022-12-01T17:10:28.669Z,17.02
2022-12-01T17:12:56.708Z,15.38
2022-12-01T17:15:29.915Z,16.15
2022-12-01T17:17:58.195Z,15.85
2022-12-01T17:20:27.526Z,15.55
2022-12-01T17:22:55.602Z,15.55
2022-12-01T17:25:25.186Z,15.75
2022-12-01T17:27:53.383Z,15.13
2022-12-01T17:30:21.757Z,14.50
2022-12-01T17:32:51.068Z,16.23
2022-12-01T17:35:19.538Z,14.95
2022-12-01T17:37:48.936Z,16.95
2022-12-01T17:40:17.001Z,17.23
2022-12-01T17:42:50.445Z,15.90
2022-12-01T17:45:19.409Z,14.52
2022-12-01T17:47:47.555Z,14.95
2022-12-01T17:50:17.981Z,18.13
2022-12-01T17:52:46.252Z,16.17
2022-12-01T17:55:15.744Z,15.65
2022-12-01T17:57:45.467Z,17.13
2022-12-01T18:00:17.259Z,15.38
2022-12-01T18:02:47.309Z,23.00
2022-12-01T18:05:15.629Z,16.08
2022-12-01T18:07:43.785Z,15.98
2022-12-01T18:10:12.084Z,15.82
2022-12-01T18:12:41.709Z,14.43
2022-12-01T18:15:10.880Z,14.77
2022-12-01T18:17:39.230Z,15.35
2022-12-01T18:20:08.969Z,15.82
2022-12-01T18:22:37.100Z,15.93
2022-12-01T18:25:05.878Z,15.30
2022-12-01T18:27:33.900Z,13.63
2022-12-01T18:30:03.304Z,14.48
2022-12-01T18:32:31.621Z,16.10
2022-12-01T18:34:59.761Z,14.68
2022-12-01T18:37:27.761Z,17.23
2022-12-01T18:39:56.199Z,28.02
2022-12-01T18:42:24.899Z,14.52
2022-12-01T18:44:53.180Z,14.05
2022-12-01T18:47:23.871Z,13.77
2022-12-01T18:49:51.973Z,15.38
2022-12-01T18:52:19.980Z,13.98
2022-12-01T18:54:48.272Z,13.82
2022-12-01T18:57:17.719Z,14.32
2022-12-01T18:59:45.789Z,12.77
2022-12-01T19:02:13.827Z,13.77
2022-12-01T19:04:43.314Z,14.38
2022-12-01T19:07:11.246Z,14.80
2022-12-01T19:09:39.217Z,15.77
2022-12-01T19:12:08.011Z,14.10
2022-12-01T19:14:36.219Z,14.80
2022-12-01T19:17:04.378Z,12.75
2022-12-01T19:19:35.968Z,14.15
2022-12-01T19:22:07.049Z,13.63
2022-12-01T19:24:35.153Z,14.25
2022-12-01T19:27:03.229Z,14.65
2022-12-01T19:29:31.307Z,15.32
2022-12-01T19:31:59.544Z,15.23
2022-12-01T19:34:27.631Z,14.32
2022-12-01T19:36:56.817Z,13.90
2022-12-01T19:39:26.317Z,14.20
2022-12-01T19:41:58.209Z,15.50
2022-12-01T19:44:26.354Z,15.55
2022-12-01T19:46:54.764Z,23.50
2022-12-01T19:49:22.797Z,14.15
2022-12-01T19:51:50.969Z,15.57
2022-12-01T19:54:20.982Z,14.10
2022-12-01T19:56:50.544Z,13.18
2022-12-01T19:59:18.726Z,13.38
2022-12-01T20:01:46.942Z,14.90
2022-12-01T20:04:14.967Z,13.30
2022-12-01T20:06:43.273Z,13.90
2022-12-01T20:09:14.166Z,13.55
2022-12-01T20:11:42.285Z,14.60
2022-12-01T20:14:16.984Z,14.82
2022-12-01T20:16:45.169Z,12.95
2022-12-01T20:19:13.387Z,14.52
2022-12-01T20:21:43.297Z,13.68
2022-12-01T20:24:14.309Z,12.88
2022-12-01T20:26:47.084Z,14.48
2022-12-01T20:29:19.093Z,14.40
2022-12-01T20:31:48.294Z,14.00
2022-12-01T20:34:19.464Z,14.15
2022-12-01T20:36:48.546Z,14.10
2022-12-01T20:39:17.517Z,14.05
2022-12-01T20:41:46.338Z,15.10
2022-12-01T20:44:17.000Z,13.10
2022-12-01T20:46:47.376Z,13.73
2022-12-01T20:49:17.175Z,14.73
2022-12-01T20:51:45.720Z,15.15
2022-12-01T20:54:27.746Z,13.57
2022-12-01T20:56:57.339Z,12.90
2022-12-01T20:59:27.455Z,13.45
2022-12-01T21:02:08.267Z,13.25
2022-12-01T21:04:36.342Z,14.32
2022-12-01T21:07:04.386Z,14.23
2022-12-01T21:09:32.613Z,15.38
2022-12-01T21:12:35.650Z,12.98
2022-12-01T21:15:14.312Z,14.02
2022-12-01T21:17:50.309Z,13.05
2022-12-01T21:20:26.162Z,12.60
2022-12-01T21:22:55.052Z,12.85
2022-12-01T21:25:24.538Z,14.35
2022-12-01T21:27:53.043Z,13.75
2022-12-01T21:30:25.740Z,13.32
2022-12-01T21:32:55.230Z,13.13
2022-12-01T21:35:24.723Z,12.43
2022-12-01T21:37:59.203Z,13.50
2022-12-01T21:40:28.404Z,13.63
2022-12-01T21:43:06.409Z,12.20
2022-12-01T21:45:36.163Z,14.10
2022-12-01T21:48:13.848Z,13.18
2022-12-01T21:50:43.055Z,13.02
2022-12-01T21:53:14.233Z,12.80
2022-12-01T21:55:43.772Z,12.05
2022-12-01T21:58:28.039Z,13.20
2022-12-01T22:01:20.680Z,12.73
2022-12-01T22:03:48.709Z,11.77
2022-12-01T22:06:30.097Z,12.52
2022-12-01T22:09:02.131Z,12.43
2022-12-01T22:11:31.460Z,12.68
2022-12-01T22:14:05.613Z,13.70
2022-12-01T22:16:36.669Z,13.77
2022-12-01T22:19:23.964Z,13.13
2022-12-01T22:22:02.004Z,11.45
2022-12-01T22:24:40.835Z,12.57
2022-12-01T22:27:30.656Z,13.13
2022-12-01T22:30:01.187Z,11.77
2022-12-01T22:32:40.151Z,12.48
2022-12-01T22:35:34.657Z,12.73
2022-12-01T22:38:21.334Z,13.32
2022-12-01T22:40:56.748Z,12.85
2022-12-01T22:43:28.094Z,11.95
2022-12-01T22:46:03.985Z,13.15
2022-12-01T22:48:36.762Z,11.95
2022-12-01T22:51:20.484Z,12.15
2022-12-01T22:53:49.059Z,13.20
2022-12-01T22:56:28.433Z,12.35
2022-12-01T22:58:57.152Z,13.43
2022-12-01T23:01:29.083Z,12.75
2022-12-01T23:04:14.488Z,13.55
2022-12-01T23:06:56.181Z,12.43
2022-12-01T23:09:27.964Z,11.98
2022-12-01T23:11:59.756Z,14.05
2022-12-01T23:14:28.592Z,12.98
2022-12-01T23:17:06.403Z,14.38
2022-12-01T23:19:36.332Z,13.27
2022-12-01T23:22:04.343Z,12.52
2022-12-01T23:24:34.044Z,12.73
2022-12-01T23:27:02.508Z,13.18
2022-12-01T23:29:31.290Z,11.48
2022-12-01T23:31:59.623Z,14.50
2022-12-01T23:34:27.581Z,12.75
2022-12-01T23:36:57.308Z,12.25
2022-12-01T23:39:33.746Z,12.20
2022-12-01T23:42:03.515Z,12.68
2022-12-01T23:44:40.554Z,11.82
2022-12-01T23:47:16.855Z,12.02
2022-12-01T23:49:46.269Z,12.50
2022-12-01T23:52:21.195Z,12.50
2022-12-01T23:54:49.765Z,12.60
2022-12-01T23:57:21.547Z,11.90
2022-12-01T23:59:50.344Z,32.53
